Time;durP1;ratioP1;P1;durP2;ratioP2;P2;SDS_P1;SDS_P2;PMS_P1;PMS_P2;Temp;Humidity;BMP_temperature;BMP_pressure;BME280_temperature;BME280_humidity;BME280_pressure;Samples;Min_cycle;Max_cycle;Signal;HPM_P1;HPM_P2
2022/01/04 00:00:29;;;;;;;17.83;5.93;;;8.20;99.90;;;;;;5033083;28;20083;-78
2022/01/04 00:02:55;;;;;;;26.30;6.53;;;8.10;99.90;;;;;;5032809;28;20510;-78
2022/01/04 00:05:20;;;;;;;20.83;5.65;;;8.10;99.90;;;;;;5017482;28;20171;-79
2022/01/04 00:07:46;;;;;;;19.20;6.20;;;8.10;99.90;;;;;;5031620;28;20080;-78
2022/01/04 00:10:12;;;;;;;22.98;6.07;;;8.10;99.90;;;;;;5032458;28;20087;-78
2022/01/04 00:15:23;;;;;;;17.85;5.78;;;8.10;99.90;;;;;;5032432;28;20041;-78
2022/01/04 00:17:49;;;;;;;18.65;6.00;;;8.10;99.90;;;;;;5032990;28;20082;-79
2022/01/04 00:20:14;;;;;;;17.75;7.13;;;8.10;99.90;;;;;;5032231;28;20044;-78
2022/01/04 00:22:40;;;;;;;14.18;5.93;;;8.10;99.90;;;;;;5030719;28;20504;-78
2022/01/04 00:25:06;;;;;;;21.27;5.72;;;8.20;99.90;;;;;;5032300;28;20069;-78
2022/01/04 00:27:31;;;;;;;19.67;6.88;;;8.20;99.90;;;;;;5029925;28;20032;-78
2022/01/04 00:29:58;;;;;;;23.95;6.50;;;8.30;99.90;;;;;;5032259;28;20094;-79
2022/01/04 00:32:23;;;;;;;18.45;6.55;;;8.20;99.90;;;;;;5032797;28;20028;-78
2022/01/04 00:34:49;;;;;;;20.05;6.10;;;8.30;99.90;;;;;;5014199;28;20044;-78
2022/01/04 00:37:15;;;;;;;17.15;5.78;;;8.20;99.90;;;;;;5036030;28;20048;-78
2022/01/04 00:39:41;;;;;;;17.50;5.90;;;8.30;99.90;;;;;;5052841;28;20040;-78
2022/01/04 00:42:06;;;;;;;21.58;6.10;;;8.30;99.90;;;;;;5046138;28;20033;-78
2022/01/04 00:44:32;;;;;;;20.83;6.50;;;8.30;99.90;;;;;;5032493;28;20471;-78
2022/01/04 00:46:59;;;;;;;17.33;6.53;;;8.30;99.90;;;;;;5049446;28;20090;-78
2022/01/04 00:49:24;;;;;;;18.15;6.40;;;8.30;99.90;;;;;;5048913;28;20113;-78
2022/01/04 00:51:52;;;;;;;23.50;7.10;;;8.30;99.90;;;;;;5052979;28;20037;-78
2022/01/04 00:54:18;;;;;;;17.13;6.53;;;8.30;99.90;;;;;;5049877;28;20063;-79
2022/01/04 00:56:46;;;;;;;17.58;6.57;;;8.30;99.90;;;;;;5050792;28;20123;-78
2022/01/04 00:59:12;;;;;;;15.02;6.75;;;8.30;99.90;;;;;;5046787;28;20519;-78
2022/01/04 01:01:38;;;;;;;22.20;6.55;;;8.30;99.90;;;;;;5052559;28;20616;-78
2022/01/04 01:04:05;;;;;;;23.90;7.10;;;8.30;99.90;;;;;;5043164;28;20111;-78
2022/01/04 01:06:31;;;;;;;22.13;6.88;;;8.30;99.90;;;;;;5050906;28;20167;-79
2022/01/04 01:08:57;;;;;;;20.08;6.38;;;8.30;99.90;;;;;;5050152;28;20040;-78
2022/01/04 01:11:23;;;;;;;20.77;5.97;;;8.30;99.90;;;;;;5053169;28;20418;-78
2022/01/04 01:13:49;;;;;;;22.60;6.30;;;8.40;99.90;;;;;;5035987;28;20041;-78
2022/01/04 01:16:15;;;;;;;15.55;5.75;;;8.30;99.90;;;;;;5035459;28;20493;-78
2022/01/04 01:18:41;;;;;;;25.52;6.82;;;8.30;99.90;;;;;;5047120;28;20045;-78
2022/01/04 01:21:07;;;;;;;19.08;5.88;;;8.40;99.90;;;;;;5021729;28;20055;-78
2022/01/04 01:23:34;;;;;;;17.45;5.97;;;8.40;99.90;;;;;;5048913;28;20497;-78
2022/01/04 01:26:00;;;;;;;17.17;6.00;;;8.30;99.90;;;;;;5055828;28;20131;-78
2022/01/04 01:28:26;;;;;;;19.85;5.88;;;8.30;99.90;;;;;;5055507;28;20394;-78
2022/01/04 01:30:51;;;;;;;19.98;5.88;;;8.30;99.90;;;;;;5056116;28;20044;-78
2022/01/04 01:33:18;;;;;;;21.70;5.97;;;8.30;99.90;;;;;;5039340;28;20514;-78
2022/01/04 01:35:44;;;;;;;20.77;6.63;;;8.30;99.90;;;;;;5050284;22;20048;-76
2022/01/04 01:38:10;;;;;;;19.80;6.30;;;8.30;99.90;;;;;;5052954;28;20429;-76
2022/01/04 01:40:37;;;;;;;23.25;6.40;;;8.30;99.90;;;;;;5045113;28;20041;-76
2022/01/04 01:43:04;;;;;;;20.75;6.40;;;8.30;99.90;;;;;;5019632;28;20075;-76
2022/01/04 01:45:29;;;;;;;26.40;6.78;;;8.30;99.90;;;;;;5047329;28;20501;-76
2022/01/04 01:47:55;;;;;;;19.92;6.32;;;8.30;99.90;;;;;;5020124;28;20041;-76
2022/01/04 01:50:21;;;;;;;16.15;5.78;;;8.40;99.90;;;;;;5051622;28;20040;-77
2022/01/04 01:52:49;;;;;;;19.25;6.28;;;8.40;99.90;;;;;;5038445;28;20036;-76
2022/01/04 01:55:17;;;;;;;23.45;7.30;;;8.40;99.90;;;;;;5050413;28;20037;-76
2022/01/04 01:57:43;;;;;;;16.83;6.57;;;8.40;99.90;;;;;;5054458;28;20033;-76
2022/01/04 02:00:11;;;;;;;15.35;5.80;;;8.30;99.90;;;;;;5065183;28;20032;-76
2022/01/04 02:02:37;;;;;;;21.25;6.30;;;8.40;99.90;;;;;;5040943;28;20043;-77
2022/01/04 02:05:04;;;;;;;19.85;5.93;;;8.40;99.90;;;;;;5042370;28;20037;-77
2022/01/04 02:07:30;;;;;;;18.58;6.40;;;8.40;99.90;;;;;;5042512;28;20041;-76
2022/01/04 02:10:04;;;;;;;21.75;6.60;;;8.30;99.90;;;;;;5033295;28;20098;-76
2022/01/04 02:12:39;;;;;;;17.88;5.75;;;8.30;99.90;;;;;;5053057;28;20048;-76
2022/01/04 02:15:10;;;;;;;18.02;6.43;;;8.30;99.90;;;;;;5053887;28;20044;-76
2022/01/04 02:17:36;;;;;;;25.35;7.70;;;8.30;99.90;;;;;;5038344;28;20040;-76
2022/01/04 02:20:03;;;;;;;22.05;6.72;;;8.20;99.90;;;;;;5053428;28;20036;-74
2022/01/04 02:22:30;;;;;;;22.45;7.57;;;8.20;99.90;;;;;;5021945;28;20660;-76
2022/01/04 02:24:55;;;;;;;19.33;6.10;;;8.20;99.90;;;;;;5036909;28;20094;-76
2022/01/04 02:27:21;;;;;;;25.45;7.03;;;8.20;99.90;;;;;;5042486;28;20040;-76
2022/01/04 02:29:48;;;;;;;20.55;7.43;;;8.20;99.90;;;;;;5036081;28;20056;-76
2022/01/04 02:32:14;;;;;;;24.23;7.82;;;8.20;99.90;;;;;;5047277;28;20056;-76
2022/01/04 02:34:40;;;;;;;25.38;7.57;;;8.20;99.90;;;;;;5053176;28;20040;-76
2022/01/04 02:37:07;;;;;;;18.48;7.63;;;8.20;99.90;;;;;;5046987;28;20126;-76
2022/01/04 02:39:37;;;;;;;18.45;7.95;;;8.30;99.90;;;;;;5021741;28;20032;-76
2022/01/04 02:42:06;;;;;;;25.85;8.30;;;8.30;99.90;;;;;;5053379;28;20124;-76
2022/01/04 02:44:32;;;;;;;17.40;5.13;;;8.30;99.90;;;;;;5056332;28;20029;-76
2022/01/04 02:46:58;;;;;;;16.42;7.07;;;8.40;99.90;;;;;;5022895;28;20477;-76
2022/01/04 02:49:24;;;;;;;25.85;7.72;;;8.40;99.90;;;;;;5059850;28;20041;-76
2022/01/04 02:51:50;;;;;;;18.83;7.75;;;8.40;99.90;;;;;;5028982;28;20052;-77
2022/01/04 02:54:15;;;;;;;15.85;7.97;;;8.40;99.90;;;;;;5032076;28;20041;-76
2022/01/04 02:56:41;;;;;;;28.40;9.07;;;8.30;99.90;;;;;;5043520;28;20047;-77
2022/01/04 02:59:06;;;;;;;28.02;8.57;;;8.30;99.90;;;;;;5040289;28;20041;-77
2022/01/04 03:01:32;;;;;;;19.60;8.02;;;8.40;99.90;;;;;;5058059;28;20044;-76
2022/01/04 03:03:58;;;;;;;19.48;8.00;;;8.30;99.90;;;;;;5042731;28;20041;-76
2022/01/04 03:06:24;;;;;;;24.95;7.50;;;8.40;99.90;;;;;;5034539;28;20420;-77
2022/01/04 03:08:50;;;;;;;22.38;9.20;;;8.30;99.90;;;;;;5059349;28;20091;-77
2022/01/04 03:11:16;;;;;;;25.25;7.80;;;8.30;99.90;;;;;;5034261;28;20052;-76
2022/01/04 03:13:41;;;;;;;20.25;7.72;;;8.30;99.90;;;;;;5045034;28;20047;-76
2022/01/04 03:16:07;;;;;;;23.85;8.05;;;8.30;99.90;;;;;;5041669;28;20043;-76
2022/01/04 03:18:33;;;;;;;28.48;9.20;;;8.20;99.90;;;;;;5052581;28;20036;-76
2022/01/04 03:20:59;;;;;;;18.05;8.07;;;8.20;99.90;;;;;;5045924;28;20045;-76
2022/01/04 03:23:25;;;;;;;22.60;7.95;;;8.30;99.90;;;;;;5046101;28;20095;-76
2022/01/04 03:25:50;;;;;;;22.33;8.48;;;8.20;99.90;;;;;;5030558;28;20040;-77
2022/01/04 03:28:19;;;;;;;21.95;9.05;;;8.20;99.90;;;;;;5057621;28;20069;-76
2022/01/04 03:30:46;;;;;;;21.83;9.23;;;8.30;99.90;;;;;;5033659;28;20089;-76
2022/01/04 03:33:11;;;;;;;24.70;8.90;;;8.30;99.90;;;;;;5027406;28;20437;-77
2022/01/04 03:35:37;;;;;;;25.52;9.27;;;8.30;99.90;;;;;;5049636;28;20049;-76
2022/01/04 03:38:02;;;;;;;19.98;8.70;;;8.30;99.90;;;;;;5032617;28;20076;-76
2022/01/04 03:40:28;;;;;;;24.60;9.50;;;8.20;99.90;;;;;;5050614;28;20039;-76
2022/01/04 03:42:54;;;;;;;24.65;9.05;;;8.20;99.90;;;;;;5047246;28;20095;-77
2022/01/04 03:45:19;;;;;;;22.92;10.15;;;8.20;99.90;;;;;;5044501;28;20098;-76
2022/01/04 03:47:45;;;;;;;25.52;9.70;;;8.20;99.90;;;;;;5017568;28;20054;-77
2022/01/04 03:50:10;;;;;;;24.88;9.80;;;8.20;99.90;;;;;;5042215;28;20052;-76
2022/01/04 03:52:36;;;;;;;25.65;9.55;;;8.20;99.90;;;;;;5050448;28;20085;-76
2022/01/04 03:55:05;;;;;;;20.50;8.57;;;8.20;99.90;;;;;;5023516;28;20401;-76
2022/01/04 03:57:30;;;;;;;19.02;8.82;;;8.30;99.90;;;;;;5050546;28;20421;-76
2022/01/04 03:59:56;;;;;;;20.45;10.00;;;8.30;99.90;;;;;;5043591;28;20033;-76
2022/01/04 04:02:21;;;;;;;21.20;9.52;;;8.30;99.90;;;;;;5049821;28;20044;-76
2022/01/04 04:04:47;;;;;;;22.45;10.60;;;8.30;99.90;;;;;;5043198;28;20116;-76
2022/01/04 04:07:12;;;;;;;17.85;9.93;;;8.30;99.90;;;;;;5034231;28;20049;-76
2022/01/04 04:09:39;;;;;;;22.60;11.00;;;8.20;99.90;;;;;;5028983;28;20045;-76
2022/01/04 04:12:05;;;;;;;24.42;11.80;;;8.20;99.90;;;;;;5045072;28;20370;-76
2022/01/04 04:14:31;;;;;;;22.40;11.02;;;8.20;99.90;;;;;;5052351;28;20037;-76
2022/01/04 04:16:57;;;;;;;26.88;12.25;;;8.20;99.90;;;;;;5053146;28;20101;-76
2022/01/04 04:19:22;;;;;;;24.42;13.10;;;8.20;99.90;;;;;;5066338;28;20043;-76
2022/01/04 04:21:48;;;;;;;23.65;11.23;;;8.20;99.90;;;;;;5038081;28;20052;-76
2022/01/04 04:24:13;;;;;;;23.20;12.80;;;8.20;99.90;;;;;;5032296;28;20041;-76
2022/01/04 04:26:39;;;;;;;26.23;13.57;;;8.20;99.90;;;;;;5034715;28;20086;-76
2022/01/04 04:29:04;;;;;;;33.90;16.25;;;8.20;99.90;;;;;;5049717;28;20492;-76
2022/01/04 04:31:30;;;;;;;30.45;14.77;;;8.20;99.90;;;;;;5052437;28;20554;-76
2022/01/04 04:33:56;;;;;;;30.88;15.07;;;8.20;99.90;;;;;;5034471;28;20139;-76
2022/01/04 04:36:21;;;;;;;28.42;13.13;;;8.20;99.90;;;;;;5066368;28;20378;-76
2022/01/04 04:38:47;;;;;;;30.15;14.73;;;8.10;99.90;;;;;;5047652;28;20044;-77
2022/01/04 04:41:12;;;;;;;31.40;14.43;;;8.20;99.90;;;;;;5044414;28;20041;-76
2022/01/04 04:43:38;;;;;;;33.60;14.75;;;8.20;99.90;;;;;;5043818;28;20045;-77
2022/01/04 04:46:03;;;;;;;26.25;14.48;;;8.20;99.90;;;;;;5054218;28;20036;-77
2022/01/04 04:48:29;;;;;;;29.50;14.43;;;8.10;99.90;;;;;;5028405;28;20140;-76
2022/01/04 04:50:55;;;;;;;31.92;16.30;;;8.20;99.90;;;;;;5046523;28;20055;-76
2022/01/04 04:53:20;;;;;;;31.13;14.90;;;8.20;99.90;;;;;;5055606;28;20052;-76
2022/01/04 04:55:46;;;;;;;32.22;14.32;;;8.20;99.90;;;;;;5070156;28;20056;-77
2022/01/04 04:58:12;;;;;;;29.13;12.98;;;8.20;99.90;;;;;;5050273;28;20054;-77
2022/01/04 05:00:38;;;;;;;27.83;12.77;;;8.20;99.90;;;;;;5025870;28;20048;-77
2022/01/04 05:03:04;;;;;;;31.15;13.77;;;8.30;99.90;;;;;;5044114;28;20062;-76
2022/01/04 05:05:30;;;;;;;23.27;12.38;;;8.30;99.90;;;;;;5068223;28;20033;-76
2022/01/04 05:07:55;;;;;;;28.25;12.40;;;8.20;99.90;;;;;;5037506;28;20033;-76
2022/01/04 05:10:21;;;;;;;23.38;12.52;;;8.20;99.90;;;;;;5026977;28;20131;-76
2022/01/04 05:12:46;;;;;;;31.13;13.90;;;8.20;99.90;;;;;;5056222;28;20040;-77
2022/01/04 05:15:12;;;;;;;21.65;11.77;;;8.20;99.90;;;;;;5056064;28;20131;-76
2022/01/04 05:17:37;;;;;;;25.73;13.02;;;8.20;99.90;;;;;;5048702;28;20174;-77
2022/01/04 05:20:03;;;;;;;28.40;12.88;;;8.20;99.90;;;;;;5055361;28;20037;-77
2022/01/04 05:22:29;;;;;;;24.55;11.93;;;8.20;99.90;;;;;;5044312;28;20102;-77
2022/01/04 05:24:55;;;;;;;23.05;12.23;;;8.20;99.90;;;;;;5051855;28;20375;-77
2022/01/04 05:27:21;;;;;;;25.85;12.40;;;8.20;99.90;;;;;;5049485;28;20036;-77
2022/01/04 05:29:46;;;;;;;33.60;12.38;;;8.10;99.90;;;;;;5037984;28;20086;-77
2022/01/04 05:32:12;;;;;;;25.85;10.68;;;8.20;99.90;;;;;;5055852;28;20076;-77
2022/01/04 05:34:38;;;;;;;19.80;10.45;;;8.20;99.90;;;;;;5054107;28;20055;-76
2022/01/04 05:37:04;;;;;;;23.65;10.75;;;8.20;99.90;;;;;;5055754;28;20048;-77
2022/01/04 05:39:29;;;;;;;22.73;9.95;;;8.20;99.90;;;;;;5055376;28;20044;-77
2022/01/04 05:41:55;;;;;;;27.00;11.57;;;8.20;99.90;;;;;;5051756;28;20403;-77
2022/01/04 05:44:21;;;;;;;20.98;11.32;;;8.20;99.90;;;;;;5046038;28;20041;-77
2022/01/04 05:46:46;;;;;;;27.90;11.18;;;8.20;99.90;;;;;;5050846;28;20043;-77
2022/01/04 05:49:12;;;;;;;26.83;12.00;;;8.20;99.90;;;;;;5039372;28;20128;-77
2022/01/04 05:51:37;;;;;;;28.40;12.60;;;8.20;99.90;;;;;;5036159;28;20048;-77
2022/01/04 05:54:03;;;;;;;25.33;12.48;;;8.20;99.90;;;;;;5035246;28;20046;-77
2022/01/04 05:56:29;;;;;;;31.67;13.77;;;8.20;99.90;;;;;;5046171;28;20557;-77
2022/01/04 05:58:54;;;;;;;27.67;12.63;;;8.20;99.90;;;;;;5044190;28;20521;-77
2022/01/04 06:01:20;;;;;;;27.95;13.43;;;8.20;99.90;;;;;;5021849;28;20041;-77
2022/01/04 06:03:46;;;;;;;23.98;11.98;;;8.20;99.90;;;;;;5039241;28;20115;-77
2022/01/04 06:06:12;;;;;;;20.65;12.23;;;8.30;99.90;;;;;;5044672;28;20055;-77
2022/01/04 06:08:38;;;;;;;24.00;11.88;;;8.30;99.90;;;;;;5053216;28;20116;-77
2022/01/04 06:11:07;;;;;;;27.23;13.13;;;8.20;99.90;;;;;;5045438;28;20119;-77
2022/01/04 06:16:16;;;;;;;26.27;11.80;;;8.20;99.90;;;;;;5036651;28;20127;-77
2022/01/04 06:18:42;;;;;;;20.58;11.52;;;8.30;99.90;;;;;;5049491;28;20128;-77
2022/01/04 06:21:10;;;;;;;25.33;11.18;;;8.30;99.90;;;;;;5035126;28;20045;-77
2022/01/04 06:23:36;;;;;;;24.23;12.60;;;8.30;99.90;;;;;;5056734;28;20071;-77
2022/01/04 06:26:02;;;;;;;29.42;12.73;;;8.30;99.90;;;;;;5042750;28;20502;-77
2022/01/04 06:28:27;;;;;;;29.60;12.25;;;8.30;99.90;;;;;;5047423;28;20041;-77
2022/01/04 06:30:53;;;;;;;29.77;12.43;;;8.30;99.90;;;;;;5040918;28;20032;-77
2022/01/04 06:33:23;;;;;;;25.65;11.85;;;8.30;99.90;;;;;;5049842;28;20051;-77
2022/01/04 06:35:49;;;;;;;29.05;12.65;;;8.30;99.90;;;;;;5049212;28;20517;-77
2022/01/04 06:38:15;;;;;;;33.67;13.65;;;8.30;99.90;;;;;;5045657;28;20045;-77
2022/01/04 06:40:41;;;;;;;26.77;13.57;;;8.20;99.90;;;;;;5049799;28;20047;-77
2022/01/04 06:43:06;;;;;;;21.27;9.93;;;8.30;99.90;;;;;;5035757;28;20036;-77
2022/01/04 06:45:32;;;;;;;25.40;12.65;;;8.30;99.90;;;;;;5051792;28;20058;-77
2022/01/04 06:47:57;;;;;;;29.40;13.82;;;8.30;99.90;;;;;;5042899;28;20044;-77
2022/01/04 06:50:23;;;;;;;30.60;13.63;;;8.30;99.90;;;;;;5045555;28;20620;-77
2022/01/04 06:52:49;;;;;;;26.52;11.98;;;8.30;99.90;;;;;;5046811;28;20036;-77
2022/01/04 06:55:15;;;;;;;27.33;12.88;;;8.30;99.90;;;;;;5028610;28;20045;-77
2022/01/04 06:57:41;;;;;;;23.70;13.25;;;8.30;99.90;;;;;;5048382;28;20388;-77
2022/01/04 07:00:08;;;;;;;24.20;13.02;;;8.30;99.90;;;;;;5046570;28;20064;-77
2022/01/04 07:02:33;;;;;;;25.65;11.52;;;8.30;99.90;;;;;;5045285;28;20831;-77
2022/01/04 07:04:59;;;;;;;24.65;12.20;;;8.20;99.90;;;;;;5051112;28;20044;-77
2022/01/04 07:07:24;;;;;;;19.38;10.32;;;8.20;99.90;;;;;;5054004;28;20385;-77
2022/01/04 07:09:50;;;;;;;19.95;11.70;;;8.20;99.90;;;;;;5050705;28;20045;-77
2022/01/04 07:12:16;;;;;;;17.50;9.93;;;8.20;99.90;;;;;;5052041;28;20048;-77
2022/01/04 07:14:42;;;;;;;18.65;10.05;;;8.20;99.90;;;;;;5049513;28;20043;-77
2022/01/04 07:17:07;;;;;;;16.45;9.10;;;8.20;99.90;;;;;;5052456;28;20084;-77
2022/01/04 07:19:33;;;;;;;28.98;11.35;;;8.20;99.90;;;;;;5036517;28;20045;-77
2022/01/04 07:21:59;;;;;;;17.65;9.98;;;8.20;99.90;;;;;;5043233;28;20029;-77
2022/01/04 07:24:25;;;;;;;22.48;11.55;;;8.20;99.90;;;;;;5048399;28;20029;-77
2022/01/04 07:26:51;;;;;;;22.92;10.45;;;8.10;99.90;;;;;;5036987;28;20046;-77
2022/01/04 07:29:17;;;;;;;17.02;10.77;;;8.10;99.90;;;;;;5050329;28;20139;-77
2022/01/04 07:31:42;;;;;;;18.33;11.43;;;8.10;99.90;;;;;;5050247;28;20044;-77
2022/01/04 07:34:08;;;;;;;23.67;12.15;;;8.10;99.90;;;;;;5049226;28;20036;-77
2022/01/04 07:36:33;;;;;;;18.05;11.10;;;8.10;99.90;;;;;;5049651;28;20060;-77
2022/01/04 07:38:59;;;;;;;22.73;13.82;;;8.10;99.90;;;;;;5053757;28;20486;-77
2022/01/04 07:41:25;;;;;;;22.13;13.13;;;8.10;99.90;;;;;;5035206;28;20037;-77
2022/01/04 07:43:50;;;;;;;17.13;11.32;;;8.10;99.90;;;;;;5025719;28;20187;-77
2022/01/04 07:46:17;;;;;;;21.75;12.77;;;8.10;99.90;;;;;;5046590;28;20063;-78
2022/01/04 07:48:42;;;;;;;25.50;12.68;;;8.10;99.90;;;;;;5023616;28;20032;-77
2022/01/04 07:51:08;;;;;;;22.98;13.35;;;8.10;99.90;;;;;;5043968;28;20040;-77
2022/01/04 07:53:34;;;;;;;18.83;12.65;;;8.10;99.90;;;;;;5036690;28;20132;-78
2022/01/04 07:56:00;;;;;;;20.83;13.10;;;8.10;99.90;;;;;;5045626;28;20548;-75
2022/01/04 07:58:26;;;;;;;21.02;14.18;;;8.10;99.90;;;;;;5049731;28;20076;-75
2022/01/04 08:00:52;;;;;;;26.13;16.75;;;8.10;99.90;;;;;;5046579;28;20390;-75
2022/01/04 08:03:18;;;;;;;25.10;15.77;;;8.10;99.90;;;;;;5033118;28;20098;-75
2022/01/04 08:05:44;;;;;;;19.50;15.18;;;8.10;99.90;;;;;;5036168;28;20098;-75
2022/01/04 08:08:10;;;;;;;21.70;13.40;;;8.10;99.90;;;;;;5020237;28;20036;-76
2022/01/04 08:10:36;;;;;;;22.02;13.40;;;8.10;99.90;;;;;;5047593;28;20378;-75
2022/01/04 08:13:02;;;;;;;23.85;13.20;;;8.20;99.90;;;;;;5049267;28;20094;-75
2022/01/04 08:15:28;;;;;;;23.15;12.82;;;8.20;99.90;;;;;;5052792;28;20036;-75
2022/01/04 08:17:53;;;;;;;20.33;13.32;;;8.10;99.90;;;;;;5036237;28;20029;-74
2022/01/04 08:20:19;;;;;;;21.00;13.43;;;8.20;99.90;;;;;;5057379;28;20036;-75
2022/01/04 08:22:45;;;;;;;22.55;13.00;;;8.20;99.90;;;;;;5053936;28;20509;-75
2022/01/04 08:25:11;;;;;;;9.77;6.15;;;8.20;99.90;;;;;;5068851;28;20109;-76
2022/01/04 08:27:38;;;;;;;9.20;4.75;;;8.10;99.90;;;;;;5061745;28;20043;-75
2022/01/04 08:30:06;;;;;;;6.40;3.10;;;8.00;99.90;;;;;;5039394;28;20044;-75
2022/01/04 08:32:32;;;;;;;8.60;3.20;;;8.00;99.90;;;;;;5056783;28;20048;-75
2022/01/04 08:34:58;;;;;;;7.78;2.85;;;7.90;99.90;;;;;;5051067;28;20103;-75
2022/01/04 08:37:23;;;;;;;7.70;2.80;;;7.80;99.90;;;;;;5036705;28;20040;-75
2022/01/04 08:39:49;;;;;;;10.70;4.30;;;7.80;99.90;;;;;;5036420;28;20036;-75
2022/01/04 08:42:15;;;;;;;9.98;4.53;;;7.80;99.90;;;;;;5044104;28;20506;-75
2022/01/04 08:44:40;;;;;;;6.88;4.63;;;7.70;99.90;;;;;;5045925;28;20057;-75
2022/01/04 08:47:08;;;;;;;6.38;3.35;;;7.70;99.90;;;;;;5019394;28;20044;-74
2022/01/04 08:49:34;;;;;;;6.15;2.55;;;7.70;99.90;;;;;;5054296;28;20044;-74
2022/01/04 08:52:00;;;;;;;4.45;2.50;;;7.70;99.90;;;;;;5056224;28;20649;-74
2022/01/04 08:54:26;;;;;;;2.90;1.70;;;7.70;99.90;;;;;;5036373;28;20040;-75
2022/01/04 08:56:54;;;;;;;6.18;2.10;;;7.70;99.90;;;;;;5047258;28;20080;-74
2022/01/04 08:59:19;;;;;;;5.03;1.77;;;7.70;99.90;;;;;;5042368;28;20428;-75
2022/01/04 09:01:45;;;;;;;4.72;2.03;;;7.70;99.90;;;;;;5054333;28;20135;-74
2022/01/04 09:04:11;;;;;;;6.07;2.42;;;7.70;99.90;;;;;;5042030;28;20171;-75
2022/01/04 09:06:36;;;;;;;5.85;2.03;;;7.70;99.90;;;;;;5049721;28;20036;-75
2022/01/04 09:09:03;;;;;;;6.03;2.50;;;7.60;99.90;;;;;;5053260;28;20044;-75
2022/01/04 09:11:28;;;;;;;5.78;2.20;;;7.60;99.90;;;;;;5053536;28;20028;-76
2022/01/04 09:14:06;;;;;;;5.75;2.20;;;7.60;99.90;;;;;;5021247;28;20048;-75
2022/01/04 09:19:15;;;;;;;6.68;2.60;;;7.60;99.90;;;;;;5036020;28;20053;-72
2022/01/04 09:21:41;;;;;;;8.07;2.80;;;7.70;99.90;;;;;;5036930;28;20419;-75
2022/01/04 09:24:06;;;;;;;7.60;3.00;;;7.60;99.90;;;;;;5054126;28;20138;-74
2022/01/04 09:26:33;;;;;;;5.32;2.47;;;7.70;99.90;;;;;;5042755;28;20033;-74
2022/01/04 09:28:58;;;;;;;8.65;2.70;;;7.70;99.90;;;;;;5019973;28;20072;-74
2022/01/04 09:31:26;;;;;;;5.40;2.33;;;7.80;99.90;;;;;;5036205;28;20122;-74
2022/01/04 09:33:54;;;;;;;7.90;3.10;;;7.80;99.90;;;;;;5019052;28;20044;-75
2022/01/04 09:36:20;;;;;;;10.93;2.92;;;7.80;99.90;;;;;;5055141;28;20457;-74
2022/01/04 09:38:45;;;;;;;7.50;2.95;;;7.80;99.90;;;;;;5040445;28;20051;-74
2022/01/04 09:41:11;;;;;;;11.40;3.53;;;7.80;99.90;;;;;;5038102;28;20037;-74
2022/01/04 09:43:37;;;;;;;6.88;2.33;;;7.80;99.90;;;;;;5035431;28;20052;-74
2022/01/04 09:46:03;;;;;;;5.85;1.85;;;7.80;99.90;;;;;;5036741;28;20067;-74
2022/01/04 09:48:28;;;;;;;4.75;1.75;;;7.80;99.90;;;;;;5035249;28;20087;-74
2022/01/04 09:50:57;;;;;;;2.20;1.00;;;7.70;99.90;;;;;;5046501;28;20048;-74
2022/01/04 09:53:24;;;;;;;3.10;1.10;;;7.70;99.90;;;;;;5056208;28;20489;-74
2022/01/04 09:55:51;;;;;;;5.30;1.10;;;7.80;99.90;;;;;;5043702;28;20040;-74
2022/01/04 09:58:19;;;;;;;4.75;0.82;;;7.70;99.90;;;;;;5051861;28;20119;-76
2022/01/04 10:00:46;;;;;;;3.88;0.70;;;7.70;99.90;;;;;;5051297;28;20032;-76
2022/01/04 10:03:29;;;;;;;4.38;1.10;;;7.70;99.90;;;;;;5058212;28;20055;-76
2022/01/04 10:06:04;;;;;;;7.00;1.50;;;7.60;99.90;;;;;;5054527;28;20040;-76
2022/01/04 10:08:30;;;;;;;3.05;0.93;;;7.60;99.90;;;;;;5026964;28;20067;-75
2022/01/04 10:11:08;;;;;;;3.75;0.70;;;7.60;99.90;;;;;;5022598;28;20041;-76
2022/01/04 10:13:34;;;;;;;6.03;0.90;;;7.70;99.90;;;;;;5045642;28;20476;-76
2022/01/04 10:16:00;;;;;;;3.67;1.52;;;7.60;99.90;;;;;;5031211;28;20112;-76
2022/01/04 10:18:28;;;;;;;4.50;1.10;;;7.50;99.90;;;;;;5008567;28;20043;-76
2022/01/04 10:21:02;;;;;;;5.10;1.10;;;7.50;99.90;;;;;;5035647;28;20036;-76
2022/01/04 10:23:28;;;;;;;1.20;0.88;;;7.50;99.90;;;;;;5037854;28;20044;-76
2022/01/04 10:26:05;;;;;;;4.43;0.80;;;7.60;99.90;;;;;;5041698;28;20039;-76
2022/01/04 10:28:40;;;;;;;4.78;1.23;;;7.60;99.90;;;;;;5040282;28;20482;-77
2022/01/04 10:31:08;;;;;;;2.53;1.10;;;7.50;99.90;;;;;;5053587;28;20046;-77
2022/01/04 10:33:34;;;;;;;4.97;1.10;;;7.40;99.90;;;;;;5043779;28;20055;-77
2022/01/04 10:36:05;;;;;;;4.60;1.02;;;7.30;99.90;;;;;;5032687;28;20045;-77
2022/01/04 10:38:33;;;;;;;6.38;1.10;;;7.40;99.90;;;;;;5044780;28;20151;-77
2022/01/04 10:41:27;;;;;;;4.88;1.30;;;7.30;99.90;;;;;;5052390;28;20044;-77
2022/01/04 10:44:03;;;;;;;4.35;1.08;;;7.30;99.90;;;;;;5039286;28;20051;-77
2022/01/04 10:46:43;;;;;;;4.93;1.30;;;7.30;99.90;;;;;;5051739;28;20033;-77
2022/01/04 10:49:18;;;;;;;4.28;1.00;;;7.20;99.90;;;;;;5052579;28;20386;-78
2022/01/04 10:51:45;;;;;;;3.65;0.90;;;7.40;99.90;;;;;;5032755;28;20114;-77
2022/01/04 10:54:18;;;;;;;1.70;1.10;;;7.30;99.90;;;;;;5051417;28;20761;-77
2022/01/04 10:56:44;;;;;;;2.88;0.85;;;7.20;99.90;;;;;;5051866;28;20048;-77
2022/01/04 10:59:12;;;;;;;3.40;0.70;;;6.90;99.90;;;;;;5047612;28;20033;-77
2022/01/04 11:01:40;;;;;;;2.90;0.63;;;6.90;99.90;;;;;;5034679;28;20047;-77
2022/01/04 11:04:15;;;;;;;2.50;0.63;;;6.80;99.90;;;;;;5051964;28;20043;-78
2022/01/04 11:06:41;;;;;;;3.10;0.50;;;6.80;99.90;;;;;;5042992;28;20041;-77
2022/01/04 11:09:09;;;;;;;3.95;0.60;;;6.80;99.90;;;;;;5048254;28;20041;-78
2022/01/04 11:11:35;;;;;;;2.45;0.80;;;6.70;99.90;;;;;;5047801;28;20411;-77
2022/01/04 11:14:01;;;;;;;4.32;0.73;;;6.70;99.90;;;;;;5062667;28;20127;-77
2022/01/04 11:16:28;;;;;;;2.92;0.70;;;6.60;99.90;;;;;;5037935;28;20415;-78
2022/01/04 11:18:55;;;;;;;6.03;1.05;;;6.70;99.90;;;;;;5032453;28;20052;-77
2022/01/04 11:21:25;;;;;;;2.15;0.70;;;6.70;99.90;;;;;;5047540;28;20405;-78
2022/01/04 11:23:52;;;;;;;2.90;0.50;;;6.70;99.90;;;;;;5046184;28;20181;-78
2022/01/04 11:26:19;;;;;;;3.10;0.60;;;6.80;99.90;;;;;;5040337;28;20470;-77
2022/01/04 11:28:50;;;;;;;2.90;0.60;;;6.80;99.90;;;;;;5045768;28;20105;-78
2022/01/04 11:31:56;;;;;;;2.35;0.57;;;6.70;99.90;;;;;;5031226;28;20052;-78
2022/01/04 11:34:28;;;;;;;3.05;0.50;;;6.80;99.90;;;;;;5032398;28;20100;-77
2022/01/04 11:36:54;;;;;;;3.78;1.25;;;6.80;99.90;;;;;;5026175;28;20098;-78
2022/01/04 11:39:25;;;;;;;3.15;0.43;;;6.90;99.90;;;;;;5027125;28;20036;-78
2022/01/04 11:41:51;;;;;;;2.15;0.55;;;6.80;99.90;;;;;;5043827;28;20123;-78
2022/01/04 11:44:26;;;;;;;3.10;0.65;;;6.80;99.90;;;;;;5040837;28;20231;-77
2022/01/04 11:47:09;;;;;;;1.65;0.40;;;6.80;99.90;;;;;;5048114;28;20041;-77
2022/01/04 11:49:39;;;;;;;2.97;0.55;;;6.90;99.90;;;;;;5047354;28;20103;-77
2022/01/04 11:52:07;;;;;;;2.05;0.35;;;6.80;99.90;;;;;;5046518;28;20044;-78
2022/01/04 11:54:34;;;;;;;2.13;0.50;;;6.70;99.90;;;;;;5034254;28;20048;-78
2022/01/04 11:57:02;;;;;;;3.08;0.77;;;6.60;99.90;;;;;;5043906;28;20067;-78
2022/01/04 11:59:42;;;;;;;2.63;0.50;;;6.70;99.90;;;;;;5030366;28;20093;-77
2022/01/04 12:02:31;;;;;;;3.10;0.60;;;6.50;99.90;;;;;;5033423;28;20064;-77
2022/01/04 12:05:04;;;;;;;3.72;0.47;;;6.50;99.90;;;;;;5050601;28;20041;-78
2022/01/04 12:07:41;;;;;;;3.78;1.13;;;6.50;99.90;;;;;;5032886;28;20741;-77
2022/01/04 12:10:20;;;;;;;2.28;1.00;;;6.50;99.90;;;;;;5055762;28;20463;-77
2022/01/04 12:13:09;;;;;;;3.45;0.70;;;6.50;99.90;;;;;;5030373;28;20041;-77
2022/01/04 12:15:35;;;;;;;4.45;0.65;;;6.40;99.90;;;;;;5045827;28;20044;-77
2022/01/04 12:18:29;;;;;;;11.70;1.38;;;6.30;99.90;;;;;;5049825;28;20131;-77
2022/01/04 12:20:57;;;;;;;2.60;0.40;;;6.40;99.90;;;;;;5055000;28;20040;-77
2022/01/04 12:23:46;;;;;;;4.13;1.05;;;6.30;99.90;;;;;;5042499;28;20048;-77
2022/01/04 12:26:12;;;;;;;2.88;0.98;;;6.30;99.90;;;;;;5019505;28;20471;-77
2022/01/04 12:28:57;;;;;;;2.35;0.43;;;6.40;99.90;;;;;;5041810;28;20088;-78
2022/01/04 12:31:28;;;;;;;2.47;0.70;;;6.50;99.90;;;;;;5025408;28;20036;-77
2022/01/04 12:34:07;;;;;;;2.08;0.60;;;6.40;99.90;;;;;;5045699;28;20044;-77
2022/01/04 12:36:42;;;;;;;3.10;0.80;;;6.50;99.90;;;;;;5034776;28;20053;-77
2022/01/04 12:39:14;;;;;;;2.80;0.60;;;6.50;99.90;;;;;;5044554;28;20415;-78
2022/01/04 12:41:41;;;;;;;2.25;0.60;;;6.50;99.90;;;;;;5044144;28;20058;-78
2022/01/04 12:44:08;;;;;;;3.53;0.80;;;6.50;99.90;;;;;;5036625;28;20056;-77
2022/01/04 12:46:36;;;;;;;4.13;0.77;;;6.60;99.90;;;;;;5034945;28;20119;-78
2022/01/04 12:49:09;;;;;;;4.90;0.90;;;6.60;99.90;;;;;;5038582;28;20490;-78
2022/01/04 12:51:37;;;;;;;3.17;0.70;;;6.70;99.90;;;;;;5028521;28;20526;-78
2022/01/04 12:54:07;;;;;;;4.45;0.90;;;6.70;99.90;;;;;;5031255;28;20033;-78
2022/01/04 12:56:39;;;;;;;5.03;0.88;;;6.70;99.90;;;;;;5027054;28;20040;-78